createdAt,value
2023-05-20T00:01:31.249Z,102471.63
2023-05-20T00:03:59.254Z,102466.34
2023-05-20T00:06:27.202Z,102468.38
2023-05-20T00:08:55.733Z,102463.56
2023-05-20T00:11:24.937Z,102468.16
2023-05-20T00:13:52.758Z,102470.13
2023-05-20T00:16:20.627Z,102463.53
2023-05-20T00:18:48.468Z,102463.31
2023-05-20T00:21:16.245Z,102464.84
2023-05-20T00:23:44.131Z,102467.22
2023-05-20T00:26:11.941Z,102467.22
2023-05-20T00:28:41.555Z,102476.63
2023-05-20T00:31:09.455Z,102469.63
2023-05-20T00:33:37.667Z,102468.41
2023-05-20T00:36:06.390Z,102472.13
2023-05-20T00:38:34.656Z,102470.56
2023-05-20T00:41:02.490Z,102462.34
2023-05-20T00:43:30.289Z,102467.50
2023-05-20T00:45:59.654Z,102463.56
2023-05-20T00:48:30.693Z,102459.28
2023-05-20T00:50:58.690Z,102463.13
2023-05-20T00:53:26.990Z,102450.81
2023-05-20T00:55:54.998Z,102455.53
2023-05-20T00:58:22.826Z,102453.66
2023-05-20T01:00:51.341Z,102449.38
2023-05-20T01:03:20.875Z,102451.09
2023-05-20T01:05:48.886Z,102441.78
2023-05-20T01:08:16.721Z,102444.16
2023-05-20T01:10:47.577Z,102440.84
2023-05-20T01:13:21.095Z,102434.69
2023-05-20T01:15:50.119Z,102444.56
2023-05-20T01:18:20.549Z,102434.03
2023-05-20T01:20:52.635Z,102433.34
2023-05-20T01:23:22.822Z,102429.19
2023-05-20T01:25:50.629Z,102426.31
2023-05-20T01:28:18.471Z,102424.81
2023-05-20T01:30:57.497Z,102424.13
2023-05-20T01:33:26.642Z,102423.44
2023-05-20T01:35:54.797Z,102426.16
2023-05-20T01:38:25.598Z,102425.00
2023-05-20T01:40:55.518Z,102417.66
2023-05-20T01:43:24.021Z,102415.75
2023-05-20T01:45:52.966Z,102414.22
2023-05-20T01:48:22.428Z,102403.44
2023-05-20T01:50:50.230Z,102404.97
2023-05-20T01:53:18.146Z,102406.53
2023-05-20T01:55:47.320Z,102411.22
2023-05-20T01:58:15.300Z,102409.44
2023-05-20T02:00:43.162Z,102415.41
2023-05-20T02:03:11.275Z,102417.41
2023-05-20T02:05:40.040Z,102415.41
2023-05-20T02:08:07.938Z,102411.56
2023-05-20T02:10:35.781Z,102406.22
2023-05-20T02:13:04.950Z,102412.09
2023-05-20T02:15:33.774Z,102404.38
2023-05-20T02:18:02.471Z,102402.59
2023-05-20T02:20:30.363Z,102410.03
2023-05-20T02:22:58.165Z,102411.66
2023-05-20T02:25:25.963Z,102410.09
2023-05-20T02:27:53.735Z,102410.19
2023-05-20T02:30:22.925Z,102410.28
2023-05-20T02:32:51.189Z,102417.88
2023-05-20T02:35:19.081Z,102407.28
2023-05-20T02:37:48.350Z,102408.16
2023-05-20T02:40:17.068Z,102404.28
2023-05-20T02:42:44.947Z,102407.81
2023-05-20T02:45:12.774Z,102398.47
2023-05-20T02:47:41.950Z,102392.31
2023-05-20T02:50:10.065Z,102391.56
2023-05-20T02:52:39.892Z,102383.53
2023-05-20T02:55:08.705Z,102391.38
2023-05-20T02:57:38.231Z,102381.72
2023-05-20T03:00:10.961Z,102389.47
2023-05-20T03:02:38.878Z,102387.09
2023-05-20T03:05:10.885Z,102384.88
2023-05-20T03:07:38.672Z,102388.34
2023-05-20T03:10:09.358Z,102382.97
2023-05-20T03:12:39.184Z,102394.28
2023-05-20T03:15:08.156Z,102394.19
2023-05-20T03:17:37.161Z,102394.19
2023-05-20T03:20:08.225Z,102392.66
2023-05-20T03:22:37.398Z,102395.91
2023-05-20T03:25:06.320Z,102392.97
2023-05-20T03:27:34.415Z,102387.97
2023-05-20T03:30:02.640Z,102395.50
2023-05-20T03:32:30.946Z,102392.06
2023-05-20T03:35:00.105Z,102391.78
2023-05-20T03:37:27.955Z,102397.69
2023-05-20T03:39:57.118Z,102406.31
2023-05-20T03:42:25.476Z,102396.94
2023-05-20T03:44:53.364Z,102387.25
2023-05-20T03:47:21.224Z,102398.34
2023-05-20T03:49:49.223Z,102386.72
2023-05-20T03:52:17.062Z,102394.56
2023-05-20T03:54:45.070Z,102393.03
2023-05-20T03:57:14.638Z,102398.41
2023-05-20T03:59:42.787Z,102385.16
2023-05-20T04:02:11.062Z,102386.41
2023-05-20T04:04:39.035Z,102390.34
2023-05-20T04:07:07.779Z,102387.63
2023-05-20T04:09:35.889Z,102387.22
2023-05-20T04:12:06.086Z,102387.88
2023-05-20T04:14:35.802Z,102395.69
2023-05-20T04:17:04.643Z,102385.94
2023-05-20T04:19:34.759Z,102391.41
2023-05-20T04:22:02.743Z,102392.19
2023-05-20T04:24:30.582Z,102390.97
2023-05-20T04:26:58.468Z,102394.41
2023-05-20T04:29:30.034Z,102396.72
2023-05-20T04:31:59.577Z,102393.16
2023-05-20T04:34:30.343Z,102395.81
2023-05-20T04:37:00.275Z,102397.69
2023-05-20T04:39:28.163Z,102393.34
2023-05-20T04:41:55.989Z,102394.09
2023-05-20T04:44:24.707Z,102397.59
2023-05-20T04:46:52.609Z,102405.75
2023-05-20T04:49:22.045Z,102405.34
2023-05-20T04:51:50.059Z,102404.06
2023-05-20T04:54:20.282Z,102406.69
2023-05-20T04:56:48.210Z,102407.81
2023-05-20T04:59:16.125Z,102401.50
2023-05-20T05:01:44.151Z,102395.19
2023-05-20T05:04:12.090Z,102398.94
2023-05-20T05:06:41.453Z,102401.19
2023-05-20T05:09:09.797Z,102403.84
2023-05-20T05:11:40.224Z,102400.25
2023-05-20T05:14:08.081Z,102400.19
2023-05-20T05:16:36.671Z,102398.47
2023-05-20T05:19:04.650Z,102396.75
2023-05-20T05:21:36.227Z,102400.94
2023-05-20T05:24:06.499Z,102402.00
2023-05-20T05:26:34.381Z,102398.75
2023-05-20T05:29:02.965Z,102394.31
2023-05-20T05:31:30.781Z,102396.88
2023-05-20T05:33:58.626Z,102399.88
2023-05-20T05:36:26.846Z,102393.44
2023-05-20T05:38:55.073Z,102387.78
2023-05-20T05:41:25.065Z,102380.50
2023-05-20T05:43:53.329Z,102382.63
2023-05-20T05:46:21.245Z,102383.94
2023-05-20T05:48:50.972Z,102383.34
2023-05-20T05:51:19.551Z,102380.72
2023-05-20T05:53:48.913Z,102381.63
2023-05-20T05:56:16.811Z,102385.72
2023-05-20T05:58:48.275Z,102381.56
2023-05-20T06:01:16.773Z,102387.19
2023-05-20T06:03:44.979Z,102381.72
2023-05-20T06:06:12.872Z,102380.28
2023-05-20T06:08:40.741Z,102376.13
2023-05-20T06:11:10.069Z,102375.81
2023-05-20T06:13:39.139Z,102375.84
2023-05-20T06:16:08.810Z,102386.03
2023-05-20T06:18:36.711Z,102378.56
2023-05-20T06:21:06.265Z,102382.47
2023-05-20T06:23:34.597Z,102376.28
2023-05-20T06:26:05.856Z,102374.94
2023-05-20T06:28:33.763Z,102374.56
2023-05-20T06:31:01.598Z,102384.28
2023-05-20T06:33:34.985Z,102378.81
2023-05-20T06:36:08.257Z,102378.00
2023-05-20T06:38:36.046Z,102371.25
2023-05-20T06:41:04.270Z,102371.19
2023-05-20T06:43:33.924Z,102380.75
2023-05-20T06:46:19.664Z,102378.34
2023-05-20T06:48:57.376Z,102374.44
2023-05-20T06:51:25.216Z,102369.88
2023-05-20T06:53:53.044Z,102364.84
2023-05-20T06:56:21.589Z,102370.50
2023-05-20T06:58:50.117Z,102366.50
2023-05-20T07:01:18.499Z,102356.84
2023-05-20T07:03:47.433Z,102355.84
2023-05-20T07:06:16.953Z,102359.19
2023-05-20T07:08:45.256Z,102362.63
2023-05-20T07:11:13.737Z,102350.44
2023-05-20T07:13:41.517Z,102349.78
2023-05-20T07:16:10.323Z,102349.69
2023-05-20T07:18:41.058Z,102346.78
2023-05-20T07:21:08.960Z,102348.03
2023-05-20T07:24:07.353Z,102350.63
2023-05-20T07:26:36.466Z,102345.47
2023-05-20T07:29:05.088Z,102341.94
2023-05-20T07:31:33.518Z,102343.97
2023-05-20T07:34:01.363Z,102337.25
2023-05-20T07:36:29.858Z,102330.53
2023-05-20T07:39:04.753Z,102338.72
2023-05-20T07:41:38.418Z,102340.47
2023-05-20T07:44:08.649Z,102333.53
2023-05-20T07:46:39.716Z,102332.91
2023-05-20T07:49:08.224Z,102326.78
2023-05-20T07:51:36.849Z,102329.16
2023-05-20T07:54:04.811Z,102323.09
2023-05-20T07:56:33.296Z,102323.19
2023-05-20T07:59:03.698Z,102318.28
2023-05-20T08:01:37.038Z,102317.16
2023-05-20T08:04:06.441Z,102318.94
2023-05-20T08:06:35.362Z,102317.03
2023-05-20T08:09:05.839Z,102308.22
2023-05-20T08:11:36.896Z,102306.50
2023-05-20T08:14:06.754Z,102301.22
2023-05-20T08:16:39.994Z,102310.59
2023-05-20T08:19:07.979Z,102308.88
2023-05-20T08:21:36.288Z,102323.31
2023-05-20T08:24:05.930Z,102304.88
2023-05-20T08:26:34.160Z,102307.41
2023-05-20T08:29:02.033Z,102308.41
2023-05-20T08:31:31.268Z,102306.13
2023-05-20T08:34:00.585Z,102303.59
2023-05-20T08:36:28.962Z,102294.94
2023-05-20T08:38:57.075Z,102302.00
2023-05-20T08:41:25.040Z,102294.06
2023-05-20T08:43:54.527Z,102291.72
2023-05-20T08:46:23.864Z,102283.25
2023-05-20T08:48:53.375Z,102282.88
2023-05-20T08:51:23.831Z,102282.34
2023-05-20T08:53:52.059Z,102277.50
2023-05-20T08:56:21.936Z,102278.38
2023-05-20T08:58:50.573Z,102273.75
2023-05-20T09:01:18.513Z,102256.88
2023-05-20T09:03:46.427Z,102265.72
2023-05-20T09:06:20.158Z,102273.91
2023-05-20T09:08:50.343Z,102265.66
2023-05-20T09:11:18.286Z,102257.13
2023-05-20T09:13:46.077Z,102264.44
2023-05-20T09:16:13.931Z,102269.91
2023-05-20T09:18:43.464Z,102263.03
2023-05-20T09:21:11.712Z,102267.25
2023-05-20T09:23:40.987Z,102267.28
2023-05-20T09:26:09.233Z,102263.50
2023-05-20T09:28:38.957Z,102257.97
2023-05-20T09:31:07.123Z,102255.50
2023-05-20T09:33:35.677Z,102259.41
2023-05-20T09:36:05.684Z,102239.63
2023-05-20T09:38:38.151Z,102247.53
2023-05-20T09:41:09.552Z,102246.88
2023-05-20T09:43:37.504Z,102249.69
2023-05-20T09:46:05.884Z,102246.09
2023-05-20T09:48:34.439Z,102243.88
2023-05-20T09:51:02.892Z,102247.78
2023-05-20T09:53:31.141Z,102242.41
2023-05-20T09:55:59.387Z,102237.66
2023-05-20T09:58:30.200Z,102237.06
2023-05-20T10:00:58.198Z,102242.56
2023-05-20T10:03:28.089Z,102234.41
2023-05-20T10:06:09.872Z,102233.16
2023-05-20T10:08:55.150Z,102233.09
2023-05-20T10:11:34.543Z,102236.31
2023-05-20T10:14:30.105Z,102232.69
2023-05-20T10:17:09.995Z,102232.31
2023-05-20T10:19:38.067Z,102232.47
2023-05-20T10:22:07.158Z,102213.81
2023-05-20T10:24:38.010Z,102221.81
2023-05-20T10:27:08.960Z,102215.50
2023-05-20T10:29:45.873Z,102204.81
2023-05-20T10:32:24.639Z,102201.31
2023-05-20T10:34:52.836Z,102204.53
2023-05-20T10:37:28.640Z,102199.63
2023-05-20T10:40:07.057Z,102197.75
2023-05-20T10:42:35.128Z,102189.31
2023-05-20T10:45:05.076Z,102194.97
2023-05-20T10:47:32.980Z,102182.78
2023-05-20T10:50:02.081Z,102193.69
2023-05-20T10:52:35.152Z,102199.28
2023-05-20T10:55:04.916Z,102190.53
2023-05-20T10:57:33.188Z,102192.47
2023-05-20T11:00:01.482Z,102185.19
2023-05-20T11:02:31.231Z,102179.09
2023-05-20T11:04:59.194Z,102171.91
2023-05-20T11:07:28.835Z,102166.13
2023-05-20T11:09:56.760Z,102173.88
2023-05-20T11:12:25.504Z,102165.75
2023-05-20T11:14:53.515Z,102165.22
2023-05-20T11:17:21.456Z,102161.91
2023-05-20T11:19:51.469Z,102163.41
2023-05-20T11:22:19.382Z,102161.16
2023-05-20T11:24:47.567Z,102161.81
2023-05-20T11:27:15.433Z,102163.53
2023-05-20T11:29:43.590Z,102174.94
2023-05-20T11:32:11.595Z,102150.63
2023-05-20T11:34:40.814Z,102155.38
2023-05-20T11:37:11.930Z,102158.25
2023-05-20T11:39:39.737Z,102156.97
2023-05-20T11:42:07.583Z,102146.53
2023-05-20T11:44:35.593Z,102152.56
2023-05-20T11:47:04.729Z,102137.56
2023-05-20T11:49:40.721Z,102146.84
2023-05-20T11:52:12.098Z,102138.28
2023-05-20T11:54:39.944Z,102127.47
2023-05-20T11:57:07.821Z,102131.91
2023-05-20T11:59:36.643Z,102120.06
2023-05-20T12:02:04.553Z,102125.00
2023-05-20T12:04:32.383Z,102127.66
2023-05-20T12:07:00.253Z,102117.94
2023-05-20T12:09:29.555Z,102113.34
2023-05-20T12:11:57.579Z,102107.06
2023-05-20T12:14:25.420Z,102109.00
2023-05-20T12:16:53.783Z,102097.50
2023-05-20T12:19:21.709Z,102111.50
2023-05-20T12:21:49.535Z,102112.69
2023-05-20T12:24:17.799Z,102103.03
2023-05-20T12:26:47.045Z,102100.53
2023-05-20T12:29:14.853Z,102112.59
2023-05-20T12:31:42.691Z,102107.53
2023-05-20T12:34:10.551Z,102107.22
2023-05-20T12:36:38.712Z,102105.94
2023-05-20T12:39:07.420Z,102104.19
2023-05-20T12:41:35.227Z,102104.91
2023-05-20T12:44:04.490Z,102105.84
2023-05-20T12:46:32.473Z,102105.13
2023-05-20T12:49:00.368Z,102100.59
2023-05-20T12:51:28.184Z,102108.25
2023-05-20T12:53:56.240Z,102101.13
2023-05-20T12:56:25.349Z,102093.72
2023-05-20T12:58:53.139Z,102090.56
2023-05-20T13:01:22.370Z,102094.34
2023-05-20T13:03:53.293Z,102093.84
2023-05-20T13:06:21.252Z,102094.16
2023-05-20T13:08:49.113Z,102097.31
2023-05-20T13:11:17.062Z,102099.34
2023-05-20T13:13:44.931Z,102091.50
2023-05-20T13:16:12.737Z,102089.88
2023-05-20T13:18:42.249Z,102088.41
2023-05-20T13:21:10.092Z,102083.81
2023-05-20T13:23:38.392Z,102082.78
2023-05-20T13:26:06.596Z,102079.06
2023-05-20T13:28:34.426Z,102080.03
2023-05-20T13:31:03.269Z,102076.84
2023-05-20T13:33:31.177Z,102081.59
2023-05-20T13:36:00.448Z,102077.59
2023-05-20T13:38:28.270Z,102074.91
2023-05-20T13:40:59.242Z,102072.13
2023-05-20T13:43:28.582Z,102069.31
2023-05-20T13:45:56.659Z,102067.41
2023-05-20T13:48:24.487Z,102064.53
2023-05-20T13:50:52.419Z,102066.53
2023-05-20T13:53:21.564Z,102061.44
2023-05-20T13:55:49.397Z,102054.88
2023-05-20T13:58:17.170Z,102042.38
2023-05-20T14:00:45.196Z,102040.94
2023-05-20T14:03:13.278Z,102033.31
2023-05-20T14:05:41.566Z,102034.69
2023-05-20T14:08:09.358Z,102035.41
2023-05-20T14:10:38.560Z,102033.38
2023-05-20T14:13:08.647Z,102019.84
2023-05-20T14:15:36.720Z,102016.44
2023-05-20T14:18:04.868Z,102022.22
2023-05-20T14:20:33.041Z,102015.44
2023-05-20T14:23:01.768Z,102011.06
2023-05-20T14:25:29.570Z,102009.25
2023-05-20T14:27:58.743Z,102002.06
2023-05-20T14:30:26.693Z,102009.09
2023-05-20T14:32:55.044Z,102004.09
2023-05-20T14:35:23.041Z,102003.81
2023-05-20T14:37:50.862Z,102004.66
2023-05-20T14:40:18.909Z,102010.06
2023-05-20T14:42:47.542Z,102007.50
2023-05-20T14:45:16.726Z,101999.31
2023-05-20T14:47:44.580Z,101990.75
2023-05-20T14:50:12.594Z,101992.91
2023-05-20T14:52:40.497Z,101994.69
2023-05-20T14:55:09.122Z,102000.63
2023-05-20T14:57:37.151Z,101997.28
2023-05-20T15:00:05.925Z,101995.34
2023-05-20T15:02:35.243Z,101986.06
2023-05-20T15:05:03.108Z,101980.50
2023-05-20T15:07:31.432Z,101972.31
2023-05-20T15:09:59.247Z,101974.13
2023-05-20T15:12:27.074Z,101975.28
2023-05-20T15:14:54.933Z,101979.00
2023-05-20T15:17:22.770Z,101968.66
2023-05-20T15:19:51.942Z,101974.28
2023-05-20T15:22:19.757Z,101979.50
2023-05-20T15:24:47.545Z,101970.69
2023-05-20T15:27:15.370Z,101972.81
2023-05-20T15:29:43.196Z,101961.91
2023-05-20T15:32:11.297Z,101966.19
2023-05-20T15:34:39.103Z,101960.91
2023-05-20T15:37:08.297Z,101971.50
2023-05-20T15:39:38.581Z,101967.50
2023-05-20T15:42:06.690Z,101964.50
2023-05-20T15:44:36.052Z,101967.63
2023-05-20T15:47:05.768Z,101961.06
2023-05-20T15:49:33.631Z,101956.81
2023-05-20T15:52:04.080Z,101955.88
2023-05-20T15:54:33.711Z,101959.72
2023-05-20T15:57:02.557Z,101957.50
2023-05-20T15:59:30.542Z,101962.34
2023-05-20T16:01:58.622Z,101968.19
2023-05-20T16:04:26.658Z,101951.00
2023-05-20T16:06:54.511Z,101938.09
2023-05-20T16:09:22.345Z,101943.47
2023-05-20T16:11:51.549Z,101937.66
2023-05-20T16:14:19.373Z,101935.91
2023-05-20T16:16:47.219Z,101939.75
2023-05-20T16:19:15.212Z,101933.69
2023-05-20T16:21:43.077Z,101929.44
2023-05-20T16:24:10.939Z,101936.53
2023-05-20T16:26:38.777Z,101930.22
2023-05-20T16:29:07.947Z,101926.47
2023-05-20T16:31:35.919Z,101922.44
2023-05-20T16:34:04.843Z,101915.41
2023-05-20T16:36:32.689Z,101922.00
2023-05-20T16:39:00.568Z,101921.53
2023-05-20T16:41:28.696Z,101931.66
2023-05-20T16:43:56.573Z,101924.34
2023-05-20T16:46:25.932Z,101925.66
2023-05-20T16:48:53.825Z,101922.34
2023-05-20T16:51:21.805Z,101924.09
2023-05-20T16:53:49.691Z,101922.06
2023-05-20T16:56:17.513Z,101923.63
2023-05-20T16:58:45.477Z,101931.72
2023-05-20T17:01:13.355Z,101928.69
2023-05-20T17:03:42.554Z,101927.25
2023-05-20T17:06:10.554Z,101928.50
2023-05-20T17:08:39.027Z,101923.19
2023-05-20T17:11:06.914Z,101930.50
2023-05-20T17:13:34.756Z,101935.31
2023-05-20T17:16:02.577Z,101935.81
2023-05-20T17:18:30.353Z,101930.53
2023-05-20T17:20:59.541Z,101930.53
2023-05-20T17:23:27.332Z,101929.78
2023-05-20T17:25:55.155Z,101935.13
2023-05-20T17:28:23.011Z,101929.56
2023-05-20T17:30:50.971Z,101930.06
2023-05-20T17:33:18.873Z,101920.22
2023-05-20T17:35:46.783Z,101927.78
2023-05-20T17:38:15.992Z,101934.59
2023-05-20T17:40:43.807Z,101935.88
2023-05-20T17:43:11.584Z,101933.38
2023-05-20T17:45:39.431Z,101943.75
2023-05-20T17:48:10.019Z,101935.41
2023-05-20T17:50:39.308Z,101939.19
2023-05-20T17:53:07.154Z,101937.44
2023-05-20T17:55:36.971Z,101947.53
2023-05-20T17:58:04.960Z,101948.31
2023-05-20T18:00:34.533Z,101946.53
2023-05-20T18:03:02.785Z,101953.59
2023-05-20T18:05:30.685Z,101957.63
2023-05-20T18:07:58.487Z,101967.69
2023-05-20T18:10:26.328Z,101970.22
2023-05-20T18:12:55.518Z,101971.22
2023-05-20T18:15:23.353Z,101976.97
2023-05-20T18:17:51.373Z,101977.22
2023-05-20T18:20:19.296Z,101966.88
2023-05-20T18:22:47.874Z,101974.91
2023-05-20T18:25:16.527Z,101976.38
2023-05-20T18:27:44.424Z,101974.63
2023-05-20T18:30:13.730Z,101976.09
2023-05-20T18:32:41.598Z,101977.34
2023-05-20T18:35:10.452Z,101970.50
2023-05-20T18:37:38.319Z,101980.34
2023-05-20T18:40:07.381Z,101983.88
2023-05-20T18:42:35.361Z,101973.53
2023-05-20T18:45:03.219Z,101983.09
2023-05-20T18:47:32.497Z,101975.53
2023-05-20T18:50:00.640Z,101980.78
2023-05-20T18:52:28.489Z,101977.25
2023-05-20T18:54:56.593Z,101974.97
2023-05-20T18:57:24.420Z,101977.25
2023-05-20T18:59:52.247Z,101967.88
2023-05-20T19:02:20.141Z,101968.34
2023-05-20T19:04:49.356Z,101967.22
2023-05-20T19:07:17.275Z,101967.41
2023-05-20T19:09:45.053Z,101967.88
2023-05-20T19:12:12.862Z,101968.63
2023-05-20T19:14:40.667Z,101964.81
2023-05-20T19:17:08.551Z,101967.06
2023-05-20T19:19:36.451Z,101972.84
2023-05-20T19:22:06.447Z,101975.59
2023-05-20T19:24:34.715Z,101978.84
2023-05-20T19:27:02.798Z,101983.38
2023-05-20T19:29:30.655Z,101981.09
2023-05-20T19:31:58.554Z,101986.38
2023-05-20T19:34:26.596Z,101998.19
2023-05-20T19:36:56.759Z,102007.50
2023-05-20T19:39:26.737Z,102007.50
2023-05-20T19:41:54.634Z,102009.19
2023-05-20T19:44:24.372Z,102001.84
2023-05-20T19:46:52.750Z,102011.84
2023-05-20T19:49:20.678Z,102001.97
2023-05-20T19:51:48.518Z,102008.19
2023-05-20T19:54:16.353Z,102000.63
2023-05-20T19:56:45.562Z,101999.31
2023-05-20T19:59:14.124Z,102002.50
2023-05-20T20:01:42.947Z,101994.13
2023-05-20T20:04:10.951Z,101993.78
2023-05-20T20:06:38.745Z,101991.00
2023-05-20T20:09:06.671Z,101998.72
2023-05-20T20:11:34.468Z,102001.56
2023-05-20T20:14:03.604Z,101995.69
2023-05-20T20:16:31.456Z,101998.66
2023-05-20T20:18:59.391Z,102000.38
2023-05-20T20:21:27.233Z,101999.34
2023-05-20T20:23:55.027Z,102004.59
2023-05-20T20:26:26.009Z,102001.84
2023-05-20T20:28:53.950Z,102004.59
2023-05-20T20:31:23.157Z,101999.00
2023-05-20T20:33:51.278Z,102000.06
2023-05-20T20:36:19.112Z,102000.81
2023-05-20T20:38:47.600Z,101995.75
2023-05-20T20:41:16.738Z,101992.78
2023-05-20T20:43:45.850Z,101992.97
2023-05-20T20:46:14.939Z,101985.84
2023-05-20T20:48:45.617Z,101994.44
2023-05-20T20:51:14.277Z,101987.41
2023-05-20T20:53:42.441Z,101993.41
2023-05-20T20:56:10.860Z,101989.13
2023-05-20T20:58:39.690Z,101993.34
2023-05-20T21:01:09.892Z,101996.91
2023-05-20T21:03:40.390Z,101995.09
2023-05-20T21:06:09.784Z,101998.88
2023-05-20T21:08:37.566Z,101992.91
2023-05-20T21:11:06.426Z,101988.81
2023-05-20T21:13:34.218Z,101981.28
2023-05-20T21:16:02.007Z,101984.53
2023-05-20T21:18:29.786Z,101977.97
2023-05-20T21:20:57.682Z,101983.94
2023-05-20T21:23:26.846Z,101983.66
2023-05-20T21:25:54.679Z,101982.16
2023-05-20T21:28:22.465Z,101982.34
2023-05-20T21:30:50.545Z,101984.41
2023-05-20T21:33:18.400Z,101984.63
2023-05-20T21:35:46.277Z,101980.25
2023-05-20T21:38:14.189Z,101985.22
2023-05-20T21:40:43.324Z,101977.16
2023-05-20T21:43:11.261Z,101977.53
2023-05-20T21:45:39.092Z,101976.47
2023-05-20T21:48:07.479Z,101974.69
2023-05-20T21:50:35.255Z,101962.31
2023-05-20T21:53:03.057Z,101958.78
2023-05-20T21:55:30.850Z,101959.38
2023-05-20T21:57:59.973Z,101948.03
2023-05-20T22:00:28.309Z,101952.41
2023-05-20T22:02:56.339Z,101943.38
2023-05-20T22:05:24.229Z,101938.53
2023-05-20T22:07:52.923Z,101939.75
2023-05-20T22:10:20.994Z,101939.41
2023-05-20T22:12:50.739Z,101938.19
2023-05-20T22:15:20.061Z,101943.41
2023-05-20T22:17:48.343Z,101944.34
2023-05-20T22:20:16.189Z,101946.75
2023-05-20T22:22:44.037Z,101936.16
2023-05-20T22:25:12.569Z,101936.09
2023-05-20T22:27:42.969Z,101932.75
2023-05-20T22:30:12.154Z,101927.72
2023-05-20T22:32:41.480Z,101918.66
2023-05-20T22:35:13.227Z,101913.94
2023-05-20T22:37:41.780Z,101906.22
2023-05-20T22:40:10.785Z,101909.94
2023-05-20T22:42:38.571Z,101911.66
2023-05-20T22:45:07.364Z,101906.59
2023-05-20T22:47:35.211Z,101911.06
2023-05-20T22:50:05.121Z,101916.59
2023-05-20T22:52:33.609Z,101911.28
2023-05-20T22:55:01.424Z,101913.81
2023-05-20T22:57:29.571Z,101915.38
2023-05-20T22:59:57.409Z,101921.56
2023-05-20T23:02:25.371Z,101911.28
2023-05-20T23:04:53.393Z,101915.84
2023-05-20T23:07:23.541Z,101912.50
2023-05-20T23:09:51.391Z,101917.72
2023-05-20T23:12:19.194Z,101909.94
2023-05-20T23:14:46.970Z,101919.66
2023-05-20T23:17:14.749Z,101909.50
2023-05-20T23:19:42.924Z,101905.84
2023-05-20T23:22:10.707Z,101906.28
2023-05-20T23:24:39.899Z,101917.63
2023-05-20T23:27:07.822Z,101903.09
2023-05-20T23:29:35.698Z,101900.78
2023-05-20T23:32:03.508Z,101898.97
2023-05-20T23:34:31.752Z,101902.03
2023-05-20T23:36:59.568Z,101897.44
2023-05-20T23:39:27.347Z,101894.88
2023-05-20T23:41:56.530Z,101892.88
2023-05-20T23:44:24.333Z,101896.09
2023-05-20T23:46:52.240Z,101896.31
2023-05-20T23:49:24.410Z,101890.34
2023-05-20T23:51:52.868Z,101892.00
2023-05-20T23:54:20.778Z,101884.13
2023-05-20T23:56:48.600Z,101893.63
2023-05-20T23:59:17.740Z,101887.16
